logo
Rechercher aéroport 
image banner adimage banner adimage banner ad
image banner ad

HKIO - Ilolo

Situé à , Kenya

ICAO - , IATA -

Données fournies par Airmate  

Information générale

Coordonnées: N4°26'49" E36°14'3"
Élévation : 1257 feet MSL.
 
Voir autres Aéroports à Eastern Province

Données opérationnelles

Special qualification required
Heure actuelle UTC:
Heure actuelle locale:
Météo à : - ( 0 km )
METAR: CYYL 220747Z AUTO 09008G15KT 9SM -RA BKN009 OVC017 02/02 A3003 RMK SLP190
Voir NOTAMs / SUP AIP / TFR affectant cet aéroport [VIEW]
Fréquences de communication: [VIEW]

Pistes:

Identifiant RWYQFULongueur (ft)Largeur (ft)SurfaceLDA (ft)
0800UNK
2600UNK

Coordonnées de l'aéroport

Adresse: Kenya

Vue satellite de HKIO